AirNav   Pilot Hours Calculator
 
 1326 users online  

6Y5 Two Hearted Airstrip
Newberry, Michigan, USA


FAA INFORMATION EFFECTIVE 18 JULY 2019

Location

FAA Identifier: 6Y5
Lat/Long: 46-41-36.0450N / 085-25-19.5450W
46-41.600750N / 085-25.325750W
46.6933458 / -85.4220958
(estimated)
Elevation: 680 ft. / 207 m (estimated)
From city: 20 miles N of NEWBERRY, MI
Time zone: UTC -4 (UTC -5 during Standard Time)
Zip code: 49768

Airport Operations

Airport use: Open to the public
Activation date: 03/2018
Control tower: no
ARTCC: MINNEAPOLIS CENTER
FSS: GREEN BAY FLIGHT SERVICE STATION
Attendance: 
Segmented circle: no

Airport Communications

CTAF: 122.9

Airport Services

Runway Information

Runway 7/25

Dimensions: 2400 x 75 ft. / 732 x 23 m
Surface: turf, in poor condition
RWY ROUGH & UNEVEN, SOME SOFT AREAS.
RUNWAY 7  RUNWAY 25
Latitude: 46-41.498500N46-41.703000N
Longitude: 085-25.571167W085-25.080333W
Elevation: 678.0 ft.672.0 ft.
Traffic pattern: leftleft
Obstructions: 38 ft. trees, 560 ft. from runway, 14:1 slope to clear25 ft. trees, 64 ft. from runway, 65 ft. right of centerline, 2:1 slope to clear

Airport Ownership and Management from official FAA records

Ownership: Publicly-owned
Owner: STATE OF MICHIGAN
DNR P.O. BOX 30452
LANSING, MI 48909
Phone 517-284-6367
Manager: JAY HOLLNAGEL
5523 COUNTY RD. 399
NEWBERRY, MI 49686
Phone 906-291-0570
ASST MGR BRAD FREDERICK 248-761-5615.

Additional Remarks

ARPT CLSD NOV-MAY 15 AND WHEN SNOW COVERED EXCP FOR SKI EQUIP ACFT. NO SNOW REMOVAL.
FQT HIGH WINDS OFF LAKE SUPERIOR.
FOR CD CTC MINNEAPOLIS ARTCC AT 651-463-5588.

Instrument Procedures

There are no published instrument procedures at 6Y5.

Some nearby airports with instrument procedures:

KERY - Luce County Airport (23 nm S)
KANJ - Sault Ste Marie Municipal Airport/Sanderson Field (45 nm E)
KCIU - Chippewa County International Airport (47 nm SE)
KISQ - Schoolcraft County Airport (53 nm SW)
83D - Mackinac County Airport (56 nm SE)
 
Loc | Ops | Rwys | IFR | FBO | Links
Com | Nav | Svcs | Stats | Notes
Aerial photo
No photo
 
Airport distance calculator
Flying to Two Hearted Airstrip? Find the distance to fly.

From to 6Y5

Sunrise and sunset
Times for 22-Jul-2019
 Local
(UTC-4)
 Zulu
(UTC)
Morning civil twilight05:3509:35
Sunrise06:1110:11
Sunset21:2501:25
Evening civil twilight22:0202:02

Current date and time
Zulu (UTC)  22-Jul-2019 13:17:55
Local (UTC-4)  22-Jul-2019 09:17:55
 
METAR
KERY 
24nm S 
221259Z AUTO 34004KT 10SM CLR 15/09 A3007 RMK AO2 T01540086
CYAM 
40nm E 
221200Z 30012KT 25SM FEW013 FEW110 FEW180 FEW250 BKN300 15/12 A3004 RMK CF1ACC1AC1CC1CI3 CF TR ACC TR SLP175 DENSITY ALT 700FT
CWCI 
41nm NW 
221200Z AUTO 10/09 RMK AO1 SLP172 T01020092 51004
KANJ 
46nm E 
221255Z AUTO 29006KT 10SM CLR 17/13 A3004 RMK AO2 SLP169 T01720133
TAF
CYAM 
40nm E 
220738Z 2208/2220 31007KT P6SM SCT180 BECMG 2209/2211 SKC FM221500 30012KT P6SM SCT050 RMK NXT FCST BY 221400Z
NOTAMs
Click for the latest NOTAMs
NOTAMs are issued by the DoD/FAA and will open in a separate window not controlled by AirNav.

 

 
 

Would you like to see your business listed on this page?

 If your business provides an interesting product or service to pilots, flight crews, aircraft, or users of the Two Hearted Airstrip, you should consider listing it here.  To start the listing process, click on the button below
 
Add a business
 

Other Pages about Two Hearted Airstrip

Page from the Michigan Airport Directory (PDF)
 
Update a link
 
Copyright © AirNav, LLC. All rights reserved. Privacy Policy  Contact